sensor_id;sensor_type;location;lat;lon;timestamp;temperature;humidity
8537;DHT22;4306;50.210;10.628;2023-07-31T00:00:21;15.80;99.90
8537;DHT22;4306;50.210;10.628;2023-07-31T00:02:49;15.80;99.90
8537;DHT22;4306;50.210;10.628;2023-07-31T00:05:16;15.80;99.90
8537;DHT22;4306;50.210;10.628;2023-07-31T00:07:43;15.80;99.90
8537;DHT22;4306;50.210;10.628;2023-07-31T00:10:10;15.80;99.90
8537;DHT22;4306;50.210;10.628;2023-07-31T00:12:38;15.90;99.90
8537;DHT22;4306;50.210;10.628;2023-07-31T00:15:06;15.90;99.90
8537;DHT22;4306;50.210;10.628;2023-07-31T00:17:33;15.90;99.90
8537;DHT22;4306;50.210;10.628;2023-07-31T00:20:01;15.90;99.90
8537;DHT22;4306;50.210;10.628;2023-07-31T00:22:28;15.90;99.90
8537;DHT22;4306;50.210;10.628;2023-07-31T00:24:56;15.90;99.90
8537;DHT22;4306;50.210;10.628;2023-07-31T00:27:22;15.80;99.90
8537;DHT22;4306;50.210;10.628;2023-07-31T00:29:49;15.90;99.90
8537;DHT22;4306;50.210;10.628;2023-07-31T00:32:16;15.90;99.90
8537;DHT22;4306;50.210;10.628;2023-07-31T00:34:43;15.80;99.90
8537;DHT22;4306;50.210;10.628;2023-07-31T00:37:11;15.80;99.90
8537;DHT22;4306;50.210;10.628;2023-07-31T00:39:38;15.80;99.90
8537;DHT22;4306;50.210;10.628;2023-07-31T00:42:05;15.80;99.90
8537;DHT22;4306;50.210;10.628;2023-07-31T00:44:33;15.80;99.90
8537;DHT22;4306;50.210;10.628;2023-07-31T00:47:00;15.80;99.90
8537;DHT22;4306;50.210;10.628;2023-07-31T00:49:27;15.80;99.90
8537;DHT22;4306;50.210;10.628;2023-07-31T00:51:54;15.80;99.90
8537;DHT22;4306;50.210;10.628;2023-07-31T00:54:24;15.90;99.90
8537;DHT22;4306;50.210;10.628;2023-07-31T00:56:53;15.90;99.90
8537;DHT22;4306;50.210;10.628;2023-07-31T00:59:21;15.90;99.90
8537;DHT22;4306;50.210;10.628;2023-07-31T01:01:47;15.90;99.90
8537;DHT22;4306;50.210;10.628;2023-07-31T01:04:15;15.90;99.90
8537;DHT22;4306;50.210;10.628;2023-07-31T01:06:47;15.90;99.90
8537;DHT22;4306;50.210;10.628;2023-07-31T01:09:22;15.90;99.90
8537;DHT22;4306;50.210;10.628;2023-07-31T01:12:00;15.90;99.90
8537;DHT22;4306;50.210;10.628;2023-07-31T01:14:28;15.90;99.90
8537;DHT22;4306;50.210;10.628;2023-07-31T01:16:55;15.90;99.90
8537;DHT22;4306;50.210;10.628;2023-07-31T01:19:24;16.00;99.90
8537;DHT22;4306;50.210;10.628;2023-07-31T01:22:21;16.00;99.90
8537;DHT22;4306;50.210;10.628;2023-07-31T01:24:58;16.00;99.90
8537;DHT22;4306;50.210;10.628;2023-07-31T01:27:30;16.00;99.90
8537;DHT22;4306;50.210;10.628;2023-07-31T01:30:05;16.00;99.90
8537;DHT22;4306;50.210;10.628;2023-07-31T01:32:36;16.00;99.90
8537;DHT22;4306;50.210;10.628;2023-07-31T01:35:06;16.00;99.90
8537;DHT22;4306;50.210;10.628;2023-07-31T01:37:33;16.10;99.90
8537;DHT22;4306;50.210;10.628;2023-07-31T01:40:00;16.00;99.90
8537;DHT22;4306;50.210;10.628;2023-07-31T01:42:28;16.00;99.90
8537;DHT22;4306;50.210;10.628;2023-07-31T01:44:55;16.00;99.90
8537;DHT22;4306;50.210;10.628;2023-07-31T01:47:22;16.00;99.90
8537;DHT22;4306;50.210;10.628;2023-07-31T01:49:49;16.00;99.90
8537;DHT22;4306;50.210;10.628;2023-07-31T01:52:16;16.00;99.90
8537;DHT22;4306;50.210;10.628;2023-07-31T01:54:43;16.00;99.90
8537;DHT22;4306;50.210;10.628;2023-07-31T01:57:10;16.00;99.90
8537;DHT22;4306;50.210;10.628;2023-07-31T01:59:38;16.10;99.90
8537;DHT22;4306;50.210;10.628;2023-07-31T02:02:05;16.00;99.90
8537;DHT22;4306;50.210;10.628;2023-07-31T02:04:32;16.00;99.90
8537;DHT22;4306;50.210;10.628;2023-07-31T02:06:59;16.00;99.90
8537;DHT22;4306;50.210;10.628;2023-07-31T02:09:26;16.00;99.90
8537;DHT22;4306;50.210;10.628;2023-07-31T02:11:53;16.10;99.90
8537;DHT22;4306;50.210;10.628;2023-07-31T02:14:20;16.10;99.90
8537;DHT22;4306;50.210;10.628;2023-07-31T02:16:48;16.00;99.90
8537;DHT22;4306;50.210;10.628;2023-07-31T02:19:15;16.00;99.90
8537;DHT22;4306;50.210;10.628;2023-07-31T02:21:42;16.00;99.90
8537;DHT22;4306;50.210;10.628;2023-07-31T02:24:09;16.00;99.90
8537;DHT22;4306;50.210;10.628;2023-07-31T02:26:36;16.00;99.90
8537;DHT22;4306;50.210;10.628;2023-07-31T02:29:03;16.00;99.90
8537;DHT22;4306;50.210;10.628;2023-07-31T02:31:30;16.00;99.90
8537;DHT22;4306;50.210;10.628;2023-07-31T02:33:58;16.00;99.90
8537;DHT22;4306;50.210;10.628;2023-07-31T02:36:25;16.00;99.90
8537;DHT22;4306;50.210;10.628;2023-07-31T02:38:52;16.00;99.90
8537;DHT22;4306;50.210;10.628;2023-07-31T02:41:18;15.90;99.90
8537;DHT22;4306;50.210;10.628;2023-07-31T02:43:45;15.90;99.90
8537;DHT22;4306;50.210;10.628;2023-07-31T02:46:12;15.90;99.90
8537;DHT22;4306;50.210;10.628;2023-07-31T02:48:39;15.90;99.90
8537;DHT22;4306;50.210;10.628;2023-07-31T02:51:07;16.00;99.90
8537;DHT22;4306;50.210;10.628;2023-07-31T02:53:34;16.00;99.90
8537;DHT22;4306;50.210;10.628;2023-07-31T02:56:01;16.00;99.90
8537;DHT22;4306;50.210;10.628;2023-07-31T02:58:27;15.90;99.90
8537;DHT22;4306;50.210;10.628;2023-07-31T03:00:54;15.90;99.90
8537;DHT22;4306;50.210;10.628;2023-07-31T03:03:21;15.90;99.90
8537;DHT22;4306;50.210;10.628;2023-07-31T03:05:48;15.90;99.90
8537;DHT22;4306;50.210;10.628;2023-07-31T03:08:16;15.90;99.90
8537;DHT22;4306;50.210;10.628;2023-07-31T03:10:43;15.90;99.90
8537;DHT22;4306;50.210;10.628;2023-07-31T03:13:10;15.90;99.90
8537;DHT22;4306;50.210;10.628;2023-07-31T03:15:37;15.90;99.90
8537;DHT22;4306;50.210;10.628;2023-07-31T03:18:04;15.90;99.90
8537;DHT22;4306;50.210;10.628;2023-07-31T03:20:31;15.90;99.90
8537;DHT22;4306;50.210;10.628;2023-07-31T03:22:58;16.00;99.90
8537;DHT22;4306;50.210;10.628;2023-07-31T03:25:26;16.00;99.90
8537;DHT22;4306;50.210;10.628;2023-07-31T03:27:53;15.90;99.90
8537;DHT22;4306;50.210;10.628;2023-07-31T03:30:20;15.90;99.90
8537;DHT22;4306;50.210;10.628;2023-07-31T03:32:46;15.90;99.90
8537;DHT22;4306;50.210;10.628;2023-07-31T03:35:13;15.90;99.90
8537;DHT22;4306;50.210;10.628;2023-07-31T03:37:40;15.90;99.90
8537;DHT22;4306;50.210;10.628;2023-07-31T03:40:08;15.90;99.90
8537;DHT22;4306;50.210;10.628;2023-07-31T03:42:36;15.90;99.90
8537;DHT22;4306;50.210;10.628;2023-07-31T03:45:04;15.90;99.90
8537;DHT22;4306;50.210;10.628;2023-07-31T03:47:31;15.90;99.90
8537;DHT22;4306;50.210;10.628;2023-07-31T03:49:58;15.90;99.90
8537;DHT22;4306;50.210;10.628;2023-07-31T03:52:25;15.90;99.90
8537;DHT22;4306;50.210;10.628;2023-07-31T03:54:52;15.90;99.90
8537;DHT22;4306;50.210;10.628;2023-07-31T03:57:19;15.90;99.90
8537;DHT22;4306;50.210;10.628;2023-07-31T03:59:47;15.90;99.90
8537;DHT22;4306;50.210;10.628;2023-07-31T04:02:14;15.90;99.90
8537;DHT22;4306;50.210;10.628;2023-07-31T04:04:41;15.90;99.90
8537;DHT22;4306;50.210;10.628;2023-07-31T04:07:08;15.90;99.90
8537;DHT22;4306;50.210;10.628;2023-07-31T04:09:35;15.90;99.90
8537;DHT22;4306;50.210;10.628;2023-07-31T04:12:02;15.90;99.90
8537;DHT22;4306;50.210;10.628;2023-07-31T04:14:29;15.90;99.90
8537;DHT22;4306;50.210;10.628;2023-07-31T04:16:57;16.00;99.90
8537;DHT22;4306;50.210;10.628;2023-07-31T04:19:24;16.00;99.90
8537;DHT22;4306;50.210;10.628;2023-07-31T04:21:51;16.00;99.90
8537;DHT22;4306;50.210;10.628;2023-07-31T04:24:18;16.00;99.90
8537;DHT22;4306;50.210;10.628;2023-07-31T04:26:49;16.00;99.90
8537;DHT22;4306;50.210;10.628;2023-07-31T04:29:16;16.00;99.90
8537;DHT22;4306;50.210;10.628;2023-07-31T04:31:43;16.00;99.90
8537;DHT22;4306;50.210;10.628;2023-07-31T04:34:11;16.00;99.90
8537;DHT22;4306;50.210;10.628;2023-07-31T04:36:38;16.10;99.90
8537;DHT22;4306;50.210;10.628;2023-07-31T04:39:05;16.10;99.90
8537;DHT22;4306;50.210;10.628;2023-07-31T04:41:32;16.10;99.90
8537;DHT22;4306;50.210;10.628;2023-07-31T04:43:59;16.00;99.90
8537;DHT22;4306;50.210;10.628;2023-07-31T04:46:26;16.00;99.90
8537;DHT22;4306;50.210;10.628;2023-07-31T04:48:53;16.00;99.90
8537;DHT22;4306;50.210;10.628;2023-07-31T04:51:21;16.10;99.90
8537;DHT22;4306;50.210;10.628;2023-07-31T04:53:48;16.10;99.90
8537;DHT22;4306;50.210;10.628;2023-07-31T04:56:16;16.20;99.90
8537;DHT22;4306;50.210;10.628;2023-07-31T04:58:43;16.20;99.90
8537;DHT22;4306;50.210;10.628;2023-07-31T05:01:09;16.10;99.90
8537;DHT22;4306;50.210;10.628;2023-07-31T05:03:36;16.20;99.90
8537;DHT22;4306;50.210;10.628;2023-07-31T05:06:03;16.10;99.90
8537;DHT22;4306;50.210;10.628;2023-07-31T05:08:31;16.10;99.90
8537;DHT22;4306;50.210;10.628;2023-07-31T05:10:59;16.10;99.90
8537;DHT22;4306;50.210;10.628;2023-07-31T05:13:26;16.20;99.90
8537;DHT22;4306;50.210;10.628;2023-07-31T05:15:52;16.20;99.90
8537;DHT22;4306;50.210;10.628;2023-07-31T05:18:19;16.20;99.90
8537;DHT22;4306;50.210;10.628;2023-07-31T05:20:46;16.30;99.90
8537;DHT22;4306;50.210;10.628;2023-07-31T05:23:13;16.40;99.90
8537;DHT22;4306;50.210;10.628;2023-07-31T05:25:41;16.40;99.90
8537;DHT22;4306;50.210;10.628;2023-07-31T05:28:08;16.50;99.90
8537;DHT22;4306;50.210;10.628;2023-07-31T05:30:35;16.50;99.90
8537;DHT22;4306;50.210;10.628;2023-07-31T05:33:02;16.60;99.90
8537;DHT22;4306;50.210;10.628;2023-07-31T05:35:28;16.60;99.90
8537;DHT22;4306;50.210;10.628;2023-07-31T05:37:55;16.60;99.90
8537;DHT22;4306;50.210;10.628;2023-07-31T05:40:22;16.70;99.90
8537;DHT22;4306;50.210;10.628;2023-07-31T05:42:50;16.70;99.90
8537;DHT22;4306;50.210;10.628;2023-07-31T05:45:17;16.70;99.90
8537;DHT22;4306;50.210;10.628;2023-07-31T05:47:44;16.80;99.90
8537;DHT22;4306;50.210;10.628;2023-07-31T05:50:11;16.80;99.90
8537;DHT22;4306;50.210;10.628;2023-07-31T05:52:39;16.90;99.90
8537;DHT22;4306;50.210;10.628;2023-07-31T05:55:07;16.80;99.90
8537;DHT22;4306;50.210;10.628;2023-07-31T05:57:34;16.90;99.90
8537;DHT22;4306;50.210;10.628;2023-07-31T06:00:03;17.00;99.90
8537;DHT22;4306;50.210;10.628;2023-07-31T06:02:32;17.10;99.90
8537;DHT22;4306;50.210;10.628;2023-07-31T06:05:02;17.20;99.90
8537;DHT22;4306;50.210;10.628;2023-07-31T06:07:29;17.20;99.90
8537;DHT22;4306;50.210;10.628;2023-07-31T06:09:56;17.30;99.90
8537;DHT22;4306;50.210;10.628;2023-07-31T06:12:28;17.30;99.90
8537;DHT22;4306;50.210;10.628;2023-07-31T06:14:55;17.40;99.90
8537;DHT22;4306;50.210;10.628;2023-07-31T06:17:23;17.30;99.90
8537;DHT22;4306;50.210;10.628;2023-07-31T06:19:51;17.30;99.90
8537;DHT22;4306;50.210;10.628;2023-07-31T06:22:18;17.40;99.90
8537;DHT22;4306;50.210;10.628;2023-07-31T06:24:46;17.40;99.90
8537;DHT22;4306;50.210;10.628;2023-07-31T06:27:13;17.50;99.90
8537;DHT22;4306;50.210;10.628;2023-07-31T06:29:40;17.50;99.90
8537;DHT22;4306;50.210;10.628;2023-07-31T06:32:07;17.70;99.90
8537;DHT22;4306;50.210;10.628;2023-07-31T06:34:35;17.70;99.90
8537;DHT22;4306;50.210;10.628;2023-07-31T06:37:02;17.70;99.90
8537;DHT22;4306;50.210;10.628;2023-07-31T06:39:29;17.70;99.90
8537;DHT22;4306;50.210;10.628;2023-07-31T06:41:56;17.70;99.90
8537;DHT22;4306;50.210;10.628;2023-07-31T06:44:23;17.70;99.90
8537;DHT22;4306;50.210;10.628;2023-07-31T06:46:50;17.70;99.90
8537;DHT22;4306;50.210;10.628;2023-07-31T06:49:17;17.70;99.90
8537;DHT22;4306;50.210;10.628;2023-07-31T06:51:45;17.70;99.90
8537;DHT22;4306;50.210;10.628;2023-07-31T06:54:13;17.70;99.90
8537;DHT22;4306;50.210;10.628;2023-07-31T06:56:40;17.70;99.90
8537;DHT22;4306;50.210;10.628;2023-07-31T06:59:07;17.70;99.90
8537;DHT22;4306;50.210;10.628;2023-07-31T07:01:34;17.70;99.90
8537;DHT22;4306;50.210;10.628;2023-07-31T07:04:01;17.70;99.90
8537;DHT22;4306;50.210;10.628;2023-07-31T07:06:28;17.60;99.90
8537;DHT22;4306;50.210;10.628;2023-07-31T07:08:57;17.60;99.90
8537;DHT22;4306;50.210;10.628;2023-07-31T07:11:24;17.70;99.90
8537;DHT22;4306;50.210;10.628;2023-07-31T07:13:51;17.70;99.90
8537;DHT22;4306;50.210;10.628;2023-07-31T07:16:18;17.80;99.90
8537;DHT22;4306;50.210;10.628;2023-07-31T07:18:45;17.90;99.90
8537;DHT22;4306;50.210;10.628;2023-07-31T07:21:13;18.00;99.90
8537;DHT22;4306;50.210;10.628;2023-07-31T07:23:43;18.00;99.90
8537;DHT22;4306;50.210;10.628;2023-07-31T07:26:11;17.90;99.90
8537;DHT22;4306;50.210;10.628;2023-07-31T07:28:38;18.00;99.90
8537;DHT22;4306;50.210;10.628;2023-07-31T07:31:05;18.10;99.90
8537;DHT22;4306;50.210;10.628;2023-07-31T07:33:32;18.10;99.90
8537;DHT22;4306;50.210;10.628;2023-07-31T07:36:00;18.20;99.90
8537;DHT22;4306;50.210;10.628;2023-07-31T07:38:27;18.20;99.90
8537;DHT22;4306;50.210;10.628;2023-07-31T07:40:54;18.30;99.90
8537;DHT22;4306;50.210;10.628;2023-07-31T07:43:22;18.40;99.90
8537;DHT22;4306;50.210;10.628;2023-07-31T07:45:50;18.60;99.90
8537;DHT22;4306;50.210;10.628;2023-07-31T07:48:17;18.70;99.90
8537;DHT22;4306;50.210;10.628;2023-07-31T07:50:43;18.80;99.90
8537;DHT22;4306;50.210;10.628;2023-07-31T07:53:10;18.70;99.90
8537;DHT22;4306;50.210;10.628;2023-07-31T07:55:37;18.70;99.90
8537;DHT22;4306;50.210;10.628;2023-07-31T07:58:04;18.80;99.90
8537;DHT22;4306;50.210;10.628;2023-07-31T08:00:32;18.90;99.90
8537;DHT22;4306;50.210;10.628;2023-07-31T08:02:59;18.90;99.90
8537;DHT22;4306;50.210;10.628;2023-07-31T08:05:26;19.00;99.90
8537;DHT22;4306;50.210;10.628;2023-07-31T08:07:53;19.00;99.90
8537;DHT22;4306;50.210;10.628;2023-07-31T08:10:20;19.20;99.90
8537;DHT22;4306;50.210;10.628;2023-07-31T08:12:47;19.20;99.90
8537;DHT22;4306;50.210;10.628;2023-07-31T08:15:14;19.40;99.90
8537;DHT22;4306;50.210;10.628;2023-07-31T08:17:42;19.40;99.90
8537;DHT22;4306;50.210;10.628;2023-07-31T08:20:10;19.50;99.90
8537;DHT22;4306;50.210;10.628;2023-07-31T08:22:37;19.60;99.90
8537;DHT22;4306;50.210;10.628;2023-07-31T08:25:05;19.70;99.90
8537;DHT22;4306;50.210;10.628;2023-07-31T08:27:32;19.80;99.90
8537;DHT22;4306;50.210;10.628;2023-07-31T08:29:59;19.90;99.90
8537;DHT22;4306;50.210;10.628;2023-07-31T08:32:26;19.90;99.90
8537;DHT22;4306;50.210;10.628;2023-07-31T08:34:54;20.10;99.90
8537;DHT22;4306;50.210;10.628;2023-07-31T08:37:21;20.20;99.90
8537;DHT22;4306;50.210;10.628;2023-07-31T08:39:48;20.20;99.90
8537;DHT22;4306;50.210;10.628;2023-07-31T08:42:15;20.40;99.90
8537;DHT22;4306;50.210;10.628;2023-07-31T08:44:43;20.30;99.90
8537;DHT22;4306;50.210;10.628;2023-07-31T08:47:10;20.20;99.90
8537;DHT22;4306;50.210;10.628;2023-07-31T08:49:38;20.40;99.90
8537;DHT22;4306;50.210;10.628;2023-07-31T08:52:08;20.60;99.90
8537;DHT22;4306;50.210;10.628;2023-07-31T08:54:34;20.70;99.90
8537;DHT22;4306;50.210;10.628;2023-07-31T08:57:02;20.70;99.90
8537;DHT22;4306;50.210;10.628;2023-07-31T08:59:31;20.70;99.90
8537;DHT22;4306;50.210;10.628;2023-07-31T09:02:04;20.60;99.90
8537;DHT22;4306;50.210;10.628;2023-07-31T09:04:32;20.40;99.90
8537;DHT22;4306;50.210;10.628;2023-07-31T09:07:02;20.40;99.90
8537;DHT22;4306;50.210;10.628;2023-07-31T09:09:31;20.40;99.90
8537;DHT22;4306;50.210;10.628;2023-07-31T09:11:58;20.40;99.90
8537;DHT22;4306;50.210;10.628;2023-07-31T09:14:26;20.50;99.90
8537;DHT22;4306;50.210;10.628;2023-07-31T09:16:54;20.40;99.90
8537;DHT22;4306;50.210;10.628;2023-07-31T09:19:32;20.30;99.90
8537;DHT22;4306;50.210;10.628;2023-07-31T09:21:59;20.20;99.90
8537;DHT22;4306;50.210;10.628;2023-07-31T09:24:27;20.20;99.90
8537;DHT22;4306;50.210;10.628;2023-07-31T09:26:58;20.20;99.90
8537;DHT22;4306;50.210;10.628;2023-07-31T09:29:26;20.30;99.90
8537;DHT22;4306;50.210;10.628;2023-07-31T09:31:54;20.40;99.90
8537;DHT22;4306;50.210;10.628;2023-07-31T09:34:28;20.50;99.90
8537;DHT22;4306;50.210;10.628;2023-07-31T09:37:01;20.70;99.90
8537;DHT22;4306;50.210;10.628;2023-07-31T09:39:29;20.80;99.90
8537;DHT22;4306;50.210;10.628;2023-07-31T09:41:58;20.80;99.90
8537;DHT22;4306;50.210;10.628;2023-07-31T09:44:38;20.80;99.90
8537;DHT22;4306;50.210;10.628;2023-07-31T09:47:06;20.80;99.90
8537;DHT22;4306;50.210;10.628;2023-07-31T09:49:33;20.90;99.90
8537;DHT22;4306;50.210;10.628;2023-07-31T09:51:59;21.00;99.90
8537;DHT22;4306;50.210;10.628;2023-07-31T09:54:27;21.00;99.90
8537;DHT22;4306;50.210;10.628;2023-07-31T09:56:54;21.20;99.90
8537;DHT22;4306;50.210;10.628;2023-07-31T09:59:25;21.30;99.90
8537;DHT22;4306;50.210;10.628;2023-07-31T10:01:53;21.40;99.90
8537;DHT22;4306;50.210;10.628;2023-07-31T10:04:24;21.60;99.90
8537;DHT22;4306;50.210;10.628;2023-07-31T10:06:53;21.60;99.90
8537;DHT22;4306;50.210;10.628;2023-07-31T10:09:21;21.50;99.90
8537;DHT22;4306;50.210;10.628;2023-07-31T10:11:55;21.50;99.90
8537;DHT22;4306;50.210;10.628;2023-07-31T10:14:24;21.50;99.90
8537;DHT22;4306;50.210;10.628;2023-07-31T10:16:52;21.60;99.90
8537;DHT22;4306;50.210;10.628;2023-07-31T10:19:20;21.50;99.90
8537;DHT22;4306;50.210;10.628;2023-07-31T10:21:49;21.60;99.90
8537;DHT22;4306;50.210;10.628;2023-07-31T10:24:16;21.60;99.90
8537;DHT22;4306;50.210;10.628;2023-07-31T10:26:45;21.80;99.90
8537;DHT22;4306;50.210;10.628;2023-07-31T10:29:16;21.90;99.90
8537;DHT22;4306;50.210;10.628;2023-07-31T10:31:46;21.80;99.90
8537;DHT22;4306;50.210;10.628;2023-07-31T10:34:14;21.70;99.90
8537;DHT22;4306;50.210;10.628;2023-07-31T10:36:42;21.70;99.90
8537;DHT22;4306;50.210;10.628;2023-07-31T10:39:33;21.40;99.90
8537;DHT22;4306;50.210;10.628;2023-07-31T10:42:10;21.40;99.90
8537;DHT22;4306;50.210;10.628;2023-07-31T10:44:37;21.30;99.90
8537;DHT22;4306;50.210;10.628;2023-07-31T10:47:06;21.30;99.90
8537;DHT22;4306;50.210;10.628;2023-07-31T10:49:33;21.30;99.90
8537;DHT22;4306;50.210;10.628;2023-07-31T10:52:03;21.20;99.90
8537;DHT22;4306;50.210;10.628;2023-07-31T10:54:30;21.00;99.90
8537;DHT22;4306;50.210;10.628;2023-07-31T10:56:57;21.00;99.90
8537;DHT22;4306;50.210;10.628;2023-07-31T10:59:26;20.80;99.90
8537;DHT22;4306;50.210;10.628;2023-07-31T11:01:55;20.70;99.90
8537;DHT22;4306;50.210;10.628;2023-07-31T11:04:25;20.60;99.90
8537;DHT22;4306;50.210;10.628;2023-07-31T11:06:56;20.60;99.90
8537;DHT22;4306;50.210;10.628;2023-07-31T11:09:25;20.50;99.90
8537;DHT22;4306;50.210;10.628;2023-07-31T11:11:54;20.40;99.90
8537;DHT22;4306;50.210;10.628;2023-07-31T11:14:21;20.40;99.90
8537;DHT22;4306;50.210;10.628;2023-07-31T11:16:50;20.20;99.90
8537;DHT22;4306;50.210;10.628;2023-07-31T11:19:21;20.20;99.90
8537;DHT22;4306;50.210;10.628;2023-07-31T11:21:51;20.10;99.90
8537;DHT22;4306;50.210;10.628;2023-07-31T11:24:19;20.00;99.90
8537;DHT22;4306;50.210;10.628;2023-07-31T11:26:50;20.10;99.90
8537;DHT22;4306;50.210;10.628;2023-07-31T11:29:17;20.00;99.90
8537;DHT22;4306;50.210;10.628;2023-07-31T11:31:45;20.00;99.90
8537;DHT22;4306;50.210;10.628;2023-07-31T11:34:13;20.10;99.90
8537;DHT22;4306;50.210;10.628;2023-07-31T11:36:40;20.20;99.90
8537;DHT22;4306;50.210;10.628;2023-07-31T11:39:09;20.20;99.90
8537;DHT22;4306;50.210;10.628;2023-07-31T11:41:40;20.30;99.90
8537;DHT22;4306;50.210;10.628;2023-07-31T11:44:07;20.30;99.90
8537;DHT22;4306;50.210;10.628;2023-07-31T11:46:36;20.20;99.90
8537;DHT22;4306;50.210;10.628;2023-07-31T11:49:02;20.00;99.90
8537;DHT22;4306;50.210;10.628;2023-07-31T11:51:29;19.80;99.90
8537;DHT22;4306;50.210;10.628;2023-07-31T11:53:58;19.90;99.90
8537;DHT22;4306;50.210;10.628;2023-07-31T11:56:29;19.90;99.90
8537;DHT22;4306;50.210;10.628;2023-07-31T11:58:58;20.00;99.90
8537;DHT22;4306;50.210;10.628;2023-07-31T12:01:27;20.10;99.90
8537;DHT22;4306;50.210;10.628;2023-07-31T12:03:55;20.20;99.90
8537;DHT22;4306;50.210;10.628;2023-07-31T12:06:32;20.30;99.90
8537;DHT22;4306;50.210;10.628;2023-07-31T12:09:01;20.40;99.90
8537;DHT22;4306;50.210;10.628;2023-07-31T12:11:30;20.40;99.90
8537;DHT22;4306;50.210;10.628;2023-07-31T12:13:57;20.40;99.90
8537;DHT22;4306;50.210;10.628;2023-07-31T12:16:27;20.50;99.90
8537;DHT22;4306;50.210;10.628;2023-07-31T12:18:54;20.40;99.90
8537;DHT22;4306;50.210;10.628;2023-07-31T12:21:21;20.40;99.90
8537;DHT22;4306;50.210;10.628;2023-07-31T12:23:48;20.30;99.90
8537;DHT22;4306;50.210;10.628;2023-07-31T12:26:16;20.30;99.90
8537;DHT22;4306;50.210;10.628;2023-07-31T12:28:46;20.30;99.90
8537;DHT22;4306;50.210;10.628;2023-07-31T12:31:15;20.50;99.90
8537;DHT22;4306;50.210;10.628;2023-07-31T12:33:43;20.50;99.90
8537;DHT22;4306;50.210;10.628;2023-07-31T12:36:12;20.70;99.90
8537;DHT22;4306;50.210;10.628;2023-07-31T12:38:39;20.70;99.90
8537;DHT22;4306;50.210;10.628;2023-07-31T12:41:06;20.90;99.90
8537;DHT22;4306;50.210;10.628;2023-07-31T12:43:33;20.90;99.90
8537;DHT22;4306;50.210;10.628;2023-07-31T12:46:01;21.00;99.90
8537;DHT22;4306;50.210;10.628;2023-07-31T12:48:28;21.10;99.90
8537;DHT22;4306;50.210;10.628;2023-07-31T12:50:55;21.30;99.90
8537;DHT22;4306;50.210;10.628;2023-07-31T12:53:22;21.30;99.90
8537;DHT22;4306;50.210;10.628;2023-07-31T12:55:49;21.50;99.90
8537;DHT22;4306;50.210;10.628;2023-07-31T12:58:16;21.70;99.90
8537;DHT22;4306;50.210;10.628;2023-07-31T13:00:43;21.70;99.90
8537;DHT22;4306;50.210;10.628;2023-07-31T13:03:11;21.80;99.90
8537;DHT22;4306;50.210;10.628;2023-07-31T13:05:38;21.70;99.90
8537;DHT22;4306;50.210;10.628;2023-07-31T13:08:05;21.70;99.90
8537;DHT22;4306;50.210;10.628;2023-07-31T13:10:31;21.80;99.90
8537;DHT22;4306;50.210;10.628;2023-07-31T13:12:58;21.80;99.90
8537;DHT22;4306;50.210;10.628;2023-07-31T13:15:25;21.70;99.90
8537;DHT22;4306;50.210;10.628;2023-07-31T13:17:52;21.60;99.90
8537;DHT22;4306;50.210;10.628;2023-07-31T13:20:20;21.80;99.90
8537;DHT22;4306;50.210;10.628;2023-07-31T13:22:47;21.70;99.90
8537;DHT22;4306;50.210;10.628;2023-07-31T13:25:14;21.70;99.90
8537;DHT22;4306;50.210;10.628;2023-07-31T13:27:41;21.80;99.90
8537;DHT22;4306;50.210;10.628;2023-07-31T13:30:08;21.80;99.90
8537;DHT22;4306;50.210;10.628;2023-07-31T13:32:35;21.90;99.90
8537;DHT22;4306;50.210;10.628;2023-07-31T13:35:05;21.90;99.90
8537;DHT22;4306;50.210;10.628;2023-07-31T13:37:33;21.90;99.90
8537;DHT22;4306;50.210;10.628;2023-07-31T13:40:00;21.80;99.90
8537;DHT22;4306;50.210;10.628;2023-07-31T13:42:30;21.80;99.90
8537;DHT22;4306;50.210;10.628;2023-07-31T13:44:57;21.80;99.90
8537;DHT22;4306;50.210;10.628;2023-07-31T13:47:23;21.80;99.90
8537;DHT22;4306;50.210;10.628;2023-07-31T13:49:50;21.80;99.90
8537;DHT22;4306;50.210;10.628;2023-07-31T13:52:17;21.90;99.90
8537;DHT22;4306;50.210;10.628;2023-07-31T13:54:45;22.00;99.90
8537;DHT22;4306;50.210;10.628;2023-07-31T13:57:12;21.90;99.90
8537;DHT22;4306;50.210;10.628;2023-07-31T13:59:39;21.80;99.90
8537;DHT22;4306;50.210;10.628;2023-07-31T14:02:06;21.80;99.90
8537;DHT22;4306;50.210;10.628;2023-07-31T14:04:33;21.80;99.90
8537;DHT22;4306;50.210;10.628;2023-07-31T14:07:00;21.90;99.90
8537;DHT22;4306;50.210;10.628;2023-07-31T14:09:27;21.90;99.90
8537;DHT22;4306;50.210;10.628;2023-07-31T14:11:55;21.90;99.90
8537;DHT22;4306;50.210;10.628;2023-07-31T14:14:22;21.80;99.90
8537;DHT22;4306;50.210;10.628;2023-07-31T14:16:49;21.70;99.90
8537;DHT22;4306;50.210;10.628;2023-07-31T14:19:16;21.60;99.90
8537;DHT22;4306;50.210;10.628;2023-07-31T14:21:42;21.40;99.90
8537;DHT22;4306;50.210;10.628;2023-07-31T14:24:09;21.40;99.90
8537;DHT22;4306;50.210;10.628;2023-07-31T14:26:36;21.50;99.90
8537;DHT22;4306;50.210;10.628;2023-07-31T14:29:04;21.60;99.90
8537;DHT22;4306;50.210;10.628;2023-07-31T14:31:31;21.60;99.90
8537;DHT22;4306;50.210;10.628;2023-07-31T14:33:58;21.80;99.90
8537;DHT22;4306;50.210;10.628;2023-07-31T14:36:25;21.90;99.90
8537;DHT22;4306;50.210;10.628;2023-07-31T14:38:52;21.70;99.90
8537;DHT22;4306;50.210;10.628;2023-07-31T14:41:19;21.60;99.90
8537;DHT22;4306;50.210;10.628;2023-07-31T14:43:45;21.60;99.90
8537;DHT22;4306;50.210;10.628;2023-07-31T14:46:14;21.60;99.90
8537;DHT22;4306;50.210;10.628;2023-07-31T14:48:40;21.60;99.90
8537;DHT22;4306;50.210;10.628;2023-07-31T14:51:07;21.50;99.90
8537;DHT22;4306;50.210;10.628;2023-07-31T14:53:34;21.60;99.90
8537;DHT22;4306;50.210;10.628;2023-07-31T14:56:01;21.40;99.90
8537;DHT22;4306;50.210;10.628;2023-07-31T14:58:28;21.40;99.90
8537;DHT22;4306;50.210;10.628;2023-07-31T15:00:55;21.30;99.90
8537;DHT22;4306;50.210;10.628;2023-07-31T15:03:23;21.20;99.90
8537;DHT22;4306;50.210;10.628;2023-07-31T15:05:50;21.20;99.90
8537;DHT22;4306;50.210;10.628;2023-07-31T15:08:17;21.20;99.90
8537;DHT22;4306;50.210;10.628;2023-07-31T15:10:44;21.20;99.90
8537;DHT22;4306;50.210;10.628;2023-07-31T15:13:11;21.30;99.90
8537;DHT22;4306;50.210;10.628;2023-07-31T15:15:38;21.30;99.90
8537;DHT22;4306;50.210;10.628;2023-07-31T15:18:05;21.30;99.90
8537;DHT22;4306;50.210;10.628;2023-07-31T15:20:33;21.40;99.90
8537;DHT22;4306;50.210;10.628;2023-07-31T15:23:00;21.40;99.90
8537;DHT22;4306;50.210;10.628;2023-07-31T15:25:27;21.60;99.90
8537;DHT22;4306;50.210;10.628;2023-07-31T15:27:54;21.50;99.90
8537;DHT22;4306;50.210;10.628;2023-07-31T15:30:21;21.40;99.90
8537;DHT22;4306;50.210;10.628;2023-07-31T15:32:47;21.40;99.90
8537;DHT22;4306;50.210;10.628;2023-07-31T15:35:15;21.50;99.90
8537;DHT22;4306;50.210;10.628;2023-07-31T15:37:43;21.50;99.90
8537;DHT22;4306;50.210;10.628;2023-07-31T15:40:11;21.50;99.90
8537;DHT22;4306;50.210;10.628;2023-07-31T15:42:37;21.40;99.90
8537;DHT22;4306;50.210;10.628;2023-07-31T15:45:07;21.20;99.90
8537;DHT22;4306;50.210;10.628;2023-07-31T15:47:34;21.40;99.90